Time;durP1;ratioP1;P1;durP2;ratioP2;P2;SDS_P1;SDS_P2;PMS_P1;PMS_P2;Temp;Humidity;BMP_temperature;BMP_pressure;BME280_temperature;BME280_humidity;BME280_pressure;Samples;Min_cycle;Max_cycle;Signal;HPM_P1;HPM_P2
2023/05/14 00:00:49;;;;;;;;;;;;;;;15.56;59.40;100816.59;4904702;28;7118;-76
2023/05/14 00:03:15;;;;;;;;;;;;;;;15.58;59.82;100816.63;4888918;29;6772;-77
2023/05/14 00:05:40;;;;;;;;;;;;;;;15.57;59.41;100810.59;4893107;29;7323;-76
2023/05/14 00:08:06;;;;;;;;;;;;;;;15.55;59.28;100804.50;4891497;29;7239;-76
2023/05/14 00:10:32;;;;;;;;;;;;;;;15.53;59.05;100800.97;4880361;29;8671;-76
2023/05/14 00:12:57;;;;;;;;;;;;;;;15.46;59.36;100797.28;4896254;29;7257;-76
2023/05/14 00:15:23;;;;;;;;;;;;;;;15.42;58.79;100803.19;4901647;29;7174;-77
2023/05/14 00:17:49;;;;;;;;;;;;;;;15.37;59.00;100802.16;4904515;29;6912;-76
2023/05/14 00:20:14;;;;;;;;;;;;;;;15.32;59.09;100804.56;4907851;29;7242;-76
2023/05/14 00:22:40;;;;;;;;;;;;;;;15.29;58.63;100799.31;4873157;29;7454;-76
2023/05/14 00:25:07;;;;;;;;;;;;;;;15.24;59.17;100799.16;4911325;29;6840;-76
2023/05/14 00:27:34;;;;;;;;;;;;;;;15.22;59.08;100797.31;4894419;29;7283;-76
2023/05/14 00:29:59;;;;;;;;;;;;;;;15.18;59.77;100792.88;4893242;29;7279;-76
2023/05/14 00:32:25;;;;;;;;;;;;;;;15.14;59.27;100795.34;4894690;29;7668;-76
2023/05/14 00:34:51;;;;;;;;;;;;;;;15.12;59.58;100791.84;4906699;29;6837;-77
2023/05/14 00:37:16;;;;;;;;;;;;;;;15.10;60.17;100793.50;4887743;29;8318;-77
2023/05/14 00:39:42;;;;;;;;;;;;;;;15.10;59.96;100796.06;4892672;29;7147;-77
2023/05/14 00:42:08;;;;;;;;;;;;;;;15.10;60.05;100792.59;4896920;29;6963;-76
2023/05/14 00:44:34;;;;;;;;;;;;;;;15.11;59.89;100791.78;4904428;29;6890;-76
2023/05/14 00:47:00;;;;;;;;;;;;;;;15.10;59.67;100792.59;4881261;29;7148;-76
2023/05/14 00:49:27;;;;;;;;;;;;;;;15.09;60.04;100789.16;4884583;29;6788;-76
2023/05/14 00:51:53;;;;;;;;;;;;;;;15.08;59.90;100783.94;4900668;29;7018;-76
2023/05/14 00:54:20;;;;;;;;;;;;;;;15.07;60.18;100782.16;4886316;29;7073;-76
2023/05/14 00:56:47;;;;;;;;;;;;;;;15.05;59.89;100783.81;4906696;29;9001;-76
2023/05/14 00:59:13;;;;;;;;;;;;;;;15.00;60.00;100778.50;4893373;29;7266;-76
2023/05/14 01:01:39;;;;;;;;;;;;;;;14.98;59.78;100775.00;4893348;29;7271;-76
2023/05/14 01:04:06;;;;;;;;;;;;;;;14.92;59.50;100783.41;4878701;29;7183;-76
2023/05/14 01:06:55;;;;;;;;;;;;;;;14.88;59.78;100776.34;4893994;29;8322;-77
2023/05/14 01:09:26;;;;;;;;;;;;;;;14.85;59.51;100781.41;4893280;29;7007;-76
2023/05/14 01:12:15;;;;;;;;;;;;;;;14.81;59.59;100780.41;4892635;29;6839;-76
2023/05/14 01:14:58;;;;;;;;;;;;;;;14.78;60.19;100780.31;4894561;29;7334;-76
2023/05/14 01:17:30;;;;;;;;;;;;;;;14.75;60.51;100780.16;4890915;29;7000;-76
2023/05/14 01:19:58;;;;;;;;;;;;;;;14.75;60.29;100779.31;4894040;29;7026;-77
2023/05/14 01:22:23;;;;;;;;;;;;;;;14.74;60.40;100783.56;4892536;29;6800;-76
2023/05/14 01:24:49;;;;;;;;;;;;;;;14.72;60.51;100775.78;4888250;29;9398;-76
2023/05/14 01:27:37;;;;;;;;;;;;;;;14.72;60.35;100773.19;4905632;29;6772;-77
2023/05/14 01:30:25;;;;;;;;;;;;;;;14.71;60.23;100770.53;4877356;29;7096;-76
2023/05/14 01:32:57;;;;;;;;;;;;;;;14.69;60.39;100767.03;4892203;29;13048;-76
2023/05/14 01:35:27;;;;;;;;;;;;;;;14.66;60.25;100775.53;4882579;29;7009;-76
2023/05/14 01:38:00;;;;;;;;;;;;;;;14.65;59.45;100778.03;4900012;29;7055;-76
2023/05/14 01:40:27;;;;;;;;;;;;;;;14.62;59.68;100775.34;4893424;29;7052;-76
2023/05/14 01:42:53;;;;;;;;;;;;;;;14.57;59.99;100770.88;4892244;29;7299;-76
2023/05/14 01:45:23;;;;;;;;;;;;;;;14.54;59.93;100769.91;4909120;29;7023;-76
2023/05/14 01:47:50;;;;;;;;;;;;;;;14.52;60.07;100775.00;4899945;28;6956;-76
2023/05/14 01:50:16;;;;;;;;;;;;;;;14.54;60.66;100769.91;4911469;28;7231;-76
2023/05/14 01:52:42;;;;;;;;;;;;;;;14.54;60.22;100763.03;4909835;29;6804;-78
2023/05/14 01:55:08;;;;;;;;;;;;;;;14.56;60.22;100758.81;4900152;29;6848;-78
2023/05/14 01:57:33;;;;;;;;;;;;;;;14.53;60.66;100769.03;4909998;28;7369;-78
2023/05/14 01:59:59;;;;;;;;;;;;;;;14.51;60.65;100768.09;4914259;28;7206;-78
2023/05/14 02:02:25;;;;;;;;;;;;;;;14.47;60.74;100761.06;4908483;28;7146;-78
2023/05/14 02:04:51;;;;;;;;;;;;;;;14.46;60.59;100761.88;4890624;28;7016;-76
2023/05/14 02:07:17;;;;;;;;;;;;;;;14.43;61.01;100757.47;4902804;28;7195;-76
2023/05/14 02:09:42;;;;;;;;;;;;;;;14.42;60.71;100758.28;4914994;28;6776;-78
2023/05/14 02:12:09;;;;;;;;;;;;;;;14.40;60.40;100756.50;4897662;29;6990;-78
2023/05/14 02:14:35;;;;;;;;;;;;;;;14.39;60.09;100754.72;4887761;29;6983;-78
2023/05/14 02:17:02;;;;;;;;;;;;;;;14.36;60.50;100750.34;4913771;28;6783;-78
2023/05/14 02:19:28;;;;;;;;;;;;;;;14.34;59.89;100748.53;4897727;29;7083;-78
2023/05/14 02:21:54;;;;;;;;;;;;;;;14.33;60.67;100754.50;4915606;28;7135;-78
2023/05/14 02:24:20;;;;;;;;;;;;;;;14.32;60.54;100756.19;4908671;29;8803;-78
2023/05/14 02:26:46;;;;;;;;;;;;;;;14.30;60.52;100758.72;4900141;29;7025;-78
2023/05/14 02:29:12;;;;;;;;;;;;;;;14.28;60.70;100752.59;4919819;28;7246;-78
2023/05/14 02:31:38;;;;;;;;;;;;;;;14.25;60.16;100757.66;4904509;28;7174;-81
2023/05/14 02:34:07;;;;;;;;;;;;;;;14.24;59.86;100761.06;4898688;29;6776;-81
2023/05/14 02:36:33;;;;;;;;;;;;;;;14.21;60.06;100758.38;4900337;29;7391;-80
2023/05/14 02:38:59;;;;;;;;;;;;;;;14.18;60.18;100765.97;4891413;29;8490;-81
2023/05/14 02:41:26;;;;;;;;;;;;;;;14.16;60.11;100765.03;4911664;29;8597;-81
2023/05/14 02:43:53;;;;;;;;;;;;;;;14.13;60.29;100762.34;4905187;29;6956;-79
2023/05/14 02:46:18;;;;;;;;;;;;;;;14.11;59.61;100751.09;4918514;28;7458;-80
2023/05/14 02:48:44;;;;;;;;;;;;;;;14.09;60.60;100752.72;4892372;28;8571;-81
2023/05/14 02:51:11;;;;;;;;;;;;;;;14.08;60.77;100766.44;4907177;29;7001;-78
2023/05/14 02:53:36;;;;;;;;;;;;;;;14.07;60.83;100756.94;4901894;29;7199;-80
2023/05/14 02:56:03;;;;;;;;;;;;;;;14.04;60.77;100752.53;4915634;28;6776;-81
2023/05/14 02:58:28;;;;;;;;;;;;;;;14.02;60.84;100757.66;4897387;29;6796;-83
2023/05/14 03:00:55;;;;;;;;;;;;;;;14.01;60.65;100755.00;4899576;29;7791;-79
2023/05/14 03:03:20;;;;;;;;;;;;;;;13.96;60.65;100747.09;4889187;29;6931;-77
2023/05/14 03:05:46;;;;;;;;;;;;;;;13.93;60.84;100741.81;4896503;29;6879;-75
2023/05/14 03:08:11;;;;;;;;;;;;;;;13.94;60.24;100747.84;4913105;29;7267;-75
2023/05/14 03:10:37;;;;;;;;;;;;;;;13.92;60.57;100747.78;4899224;29;7315;-76
2023/05/14 03:13:03;;;;;;;;;;;;;;;13.92;61.24;100737.50;4878482;29;7318;-73
2023/05/14 03:15:28;;;;;;;;;;;;;;;13.91;61.18;100738.31;4915172;29;6784;-75
2023/05/14 03:17:54;;;;;;;;;;;;;;;13.90;60.44;100736.53;4914806;29;6800;-74
2023/05/14 03:20:21;;;;;;;;;;;;;;;13.90;60.74;100736.53;4892402;29;8663;-74
2023/05/14 03:22:47;;;;;;;;;;;;;;;13.89;60.31;100729.63;4911022;29;6804;-76
2023/05/14 03:25:13;;;;;;;;;;;;;;;13.86;60.29;100732.97;4896955;29;7499;-75
2023/05/14 03:27:39;;;;;;;;;;;;;;;13.87;61.29;100733.84;4878141;29;7048;-73
2023/05/14 03:30:07;;;;;;;;;;;;;;;13.87;61.32;100721.84;4904361;28;6931;-76
2023/05/14 03:32:32;;;;;;;;;;;;;;;13.91;61.09;100733.16;4897738;29;7302;-76
2023/05/14 03:34:58;;;;;;;;;;;;;;;13.92;61.10;100734.91;4900434;29;6954;-74
2023/05/14 03:37:24;;;;;;;;;;;;;;;13.92;61.51;100732.34;4893865;29;7112;-73
2023/05/14 03:39:49;;;;;;;;;;;;;;;13.94;60.55;100724.66;4900504;29;7179;-73
2023/05/14 03:42:15;;;;;;;;;;;;;;;13.93;61.03;100733.19;4913400;29;6772;-73
2023/05/14 03:44:41;;;;;;;;;;;;;;;13.91;60.66;100727.13;4896930;29;8066;-75
2023/05/14 03:47:06;;;;;;;;;;;;;;;13.91;61.83;100730.59;4895395;29;6772;-73
2023/05/14 03:49:32;;;;;;;;;;;;;;;13.92;61.50;100726.28;4890977;29;6776;-73
2023/05/14 03:51:58;;;;;;;;;;;;;;;13.94;60.71;100725.53;4881306;29;7121;-74
2023/05/14 03:54:25;;;;;;;;;;;;;;;13.96;61.08;100723.03;4898475;29;7180;-74
2023/05/14 03:56:50;;;;;;;;;;;;;;;13.96;61.27;100734.19;4900214;29;6797;-73
2023/05/14 03:59:16;;;;;;;;;;;;;;;13.97;60.69;100727.38;4913258;29;8797;-77
2023/05/14 04:01:43;;;;;;;;;;;;;;;13.97;60.35;100720.50;4906523;28;7296;-74
2023/05/14 04:04:09;;;;;;;;;;;;;;;14.00;61.02;100723.22;4881835;29;7107;-78
2023/05/14 04:06:35;;;;;;;;;;;;;;;14.02;60.81;100729.31;4897360;29;7005;-76
2023/05/14 04:09:02;;;;;;;;;;;;;;;14.05;61.37;100730.22;4907278;29;6963;-74
2023/05/14 04:11:28;;;;;;;;;;;;;;;14.08;60.65;100732.91;4885446;29;7227;-74
2023/05/14 04:13:53;;;;;;;;;;;;;;;14.08;60.60;100727.75;4899507;29;7387;-73
2023/05/14 04:16:19;;;;;;;;;;;;;;;14.07;60.75;100723.44;4914400;29;7148;-74
2023/05/14 04:18:45;;;;;;;;;;;;;;;14.07;60.68;100721.75;4913439;29;6792;-75
2023/05/14 04:21:11;;;;;;;;;;;;;;;14.12;61.62;100720.22;4916195;29;6811;-77
2023/05/14 04:23:36;;;;;;;;;;;;;;;14.21;62.16;100717.13;4895102;29;6968;-77
2023/05/14 04:26:03;;;;;;;;;;;;;;;14.33;61.95;100723.56;4898468;29;8577;-74
2023/05/14 04:28:30;;;;;;;;;;;;;;;14.45;62.49;100726.59;4893952;29;6816;-76
2023/05/14 04:30:55;;;;;;;;;;;;;;;14.60;62.24;100725.41;4895982;29;6812;-77
2023/05/14 04:33:21;;;;;;;;;;;;;;;14.75;62.78;100738.88;4904701;29;6884;-74
2023/05/14 04:35:47;;;;;;;;;;;;;;;14.91;62.69;100730.00;4899676;28;7129;-73
2023/05/14 04:38:13;;;;;;;;;;;;;;;15.10;62.38;100736.69;4882842;29;6967;-75
2023/05/14 04:40:40;;;;;;;;;;;;;;;15.30;63.02;100740.78;4895148;29;6852;-75
2023/05/14 04:43:06;;;;;;;;;;;;;;;15.50;63.17;100731.13;4890477;29;8565;-77
2023/05/14 04:45:32;;;;;;;;;;;;;;;15.71;62.55;100737.81;4908161;29;7129;-77
2023/05/14 04:47:58;;;;;;;;;;;;;;;15.90;62.56;100724.69;4889251;29;7277;-74
2023/05/14 04:50:25;;;;;;;;;;;;;;;16.07;61.82;100726.91;4875760;29;6958;-76
2023/05/14 04:52:50;;;;;;;;;;;;;;;16.21;62.38;100723.03;4908118;29;7155;-76
2023/05/14 04:55:16;;;;;;;;;;;;;;;16.38;61.80;100726.13;4910264;29;7008;-76
2023/05/14 04:57:42;;;;;;;;;;;;;;;16.57;61.88;100720.59;4879460;29;8639;-75
2023/05/14 05:00:09;;;;;;;;;;;;;;;16.70;61.41;100730.47;4883322;29;7208;-77
2023/05/14 05:02:35;;;;;;;;;;;;;;;16.85;61.26;100723.97;4887229;29;6979;-75
2023/05/14 05:05:02;;;;;;;;;;;;;;;16.97;61.31;100721.72;4904163;28;7459;-77
2023/05/14 05:07:28;;;;;;;;;;;;;;;17.07;60.35;100725.47;4903931;29;7695;-77
2023/05/14 05:09:54;;;;;;;;;;;;;;;17.18;60.32;100723.13;4910106;29;7268;-77
2023/05/14 05:12:20;;;;;;;;;;;;;;;17.26;59.25;100728.53;4892110;29;7140;-77
2023/05/14 05:14:46;;;;;;;;;;;;;;;17.25;58.65;100722.47;4895203;29;7282;-77
2023/05/14 05:17:11;;;;;;;;;;;;;;;17.21;58.34;100726.69;4896528;29;6769;-77
2023/05/14 05:19:37;;;;;;;;;;;;;;;17.18;58.71;100730.91;4879867;29;6987;-77
2023/05/14 05:22:03;;;;;;;;;;;;;;;17.16;58.12;100727.41;4872361;29;7831;-77
2023/05/14 05:24:29;;;;;;;;;;;;;;;17.21;58.58;100729.28;4893476;29;6874;-77
2023/05/14 05:26:55;;;;;;;;;;;;;;;17.28;59.09;100732.91;4894194;29;8587;-77
2023/05/14 05:29:22;;;;;;;;;;;;;;;17.37;58.68;100727.09;4875548;29;7227;-77
2023/05/14 05:31:48;;;;;;;;;;;;;;;17.48;59.06;100725.63;4879111;29;7082;-77
2023/05/14 05:34:14;;;;;;;;;;;;;;;17.62;59.04;100725.09;4906424;29;6869;-77
2023/05/14 05:36:40;;;;;;;;;;;;;;;17.79;59.43;100728.09;4907270;29;7269;-77
2023/05/14 05:39:05;;;;;;;;;;;;;;;18.00;59.77;100732.03;4896353;29;7988;-77
2023/05/14 05:41:31;;;;;;;;;;;;;;;18.20;59.26;100732.50;4892536;29;6841;-77
2023/05/14 05:43:57;;;;;;;;;;;;;;;18.40;59.45;100732.94;4908139;29;8013;-77
2023/05/14 05:46:22;;;;;;;;;;;;;;;18.63;58.70;100732.50;4887930;29;7786;-77
2023/05/14 05:48:48;;;;;;;;;;;;;;;18.78;58.14;100734.53;4890303;29;6776;-77
2023/05/14 05:51:13;;;;;;;;;;;;;;;18.85;57.43;100733.81;4891760;29;6823;-77
2023/05/14 05:53:39;;;;;;;;;;;;;;;18.87;56.24;100734.72;4869613;29;6962;-77
2023/05/14 05:56:05;;;;;;;;;;;;;;;18.80;55.70;100732.88;4906690;29;6784;-76
2023/05/14 05:58:31;;;;;;;;;;;;;;;18.70;55.23;100736.13;4889681;29;7023;-77
2023/05/14 06:00:57;;;;;;;;;;;;;;;18.54;54.90;100734.94;4894341;29;6788;-77
2023/05/14 06:03:22;;;;;;;;;;;;;;;18.39;54.56;100736.38;4894816;29;9544;-77
2023/05/14 06:05:48;;;;;;;;;;;;;;;18.25;54.77;100740.38;4890625;29;6776;-77
2023/05/14 06:08:13;;;;;;;;;;;;;;;18.13;55.04;100741.84;4892034;29;6836;-77
2023/05/14 06:10:39;;;;;;;;;;;;;;;18.06;55.09;100733.91;4906070;29;7998;-77
2023/05/14 06:13:05;;;;;;;;;;;;;;;18.02;55.29;100735.53;4903771;29;7210;-77
2023/05/14 06:15:31;;;;;;;;;;;;;;;17.96;55.32;100737.97;4890086;29;7119;-77
2023/05/14 06:17:58;;;;;;;;;;;;;;;17.94;55.48;100744.84;4905894;29;6783;-77
2023/05/14 06:20:24;;;;;;;;;;;;;;;17.93;55.95;100748.28;4885059;29;6852;-76
2023/05/14 06:22:49;;;;;;;;;;;;;;;17.93;56.08;100746.59;4893373;29;8202;-75
2023/05/14 06:25:15;;;;;;;;;;;;;;;17.97;56.36;100750.97;4889067;29;6776;-75
2023/05/14 06:27:41;;;;;;;;;;;;;;;18.01;56.43;100751.94;4900671;29;7001;-75
2023/05/14 06:30:07;;;;;;;;;;;;;;;18.04;56.36;100752.03;4885468;29;6996;-75
2023/05/14 06:32:33;;;;;;;;;;;;;;;18.07;56.36;100748.63;4873927;29;7172;-76
2023/05/14 06:34:59;;;;;;;;;;;;;;;18.10;56.09;100752.19;4900831;29;6769;-76
2023/05/14 06:37:24;;;;;;;;;;;;;;;18.12;56.51;100750.50;4900840;29;7023;-75
2023/05/14 06:39:50;;;;;;;;;;;;;;;18.18;56.64;100749.75;4892962;29;6780;-76
2023/05/14 06:42:16;;;;;;;;;;;;;;;18.22;57.06;100751.59;4906834;29;6768;-76
2023/05/14 06:44:42;;;;;;;;;;;;;;;18.28;56.44;100750.84;4891144;29;7139;-76
2023/05/14 06:47:08;;;;;;;;;;;;;;;18.32;56.43;100753.53;4896909;29;7044;-76
2023/05/14 06:49:34;;;;;;;;;;;;;;;18.37;56.36;100748.44;4906521;29;7162;-76
2023/05/14 06:52:00;;;;;;;;;;;;;;;18.40;56.40;100755.44;4904496;29;6978;-76
2023/05/14 06:54:26;;;;;;;;;;;;;;;18.46;56.73;100747.75;4909453;29;6816;-76
2023/05/14 06:56:53;;;;;;;;;;;;;;;18.53;56.49;100748.75;4872701;29;6967;-76
2023/05/14 06:59:18;;;;;;;;;;;;;;;18.60;56.50;100748.94;4892285;29;6872;-76
2023/05/14 07:01:44;;;;;;;;;;;;;;;18.67;57.19;100744.72;4890817;29;7297;-76
2023/05/14 07:04:10;;;;;;;;;;;;;;;18.76;56.69;100737.97;4905126;29;7110;-76
2023/05/14 07:06:35;;;;;;;;;;;;;;;18.87;56.85;100732.13;4888336;29;7396;-76
2023/05/14 07:09:02;;;;;;;;;;;;;;;19.00;57.08;100735.84;4888512;29;6917;-76
2023/05/14 07:11:27;;;;;;;;;;;;;;;19.13;57.33;100733.50;4880262;29;7027;-76
2023/05/14 07:13:53;;;;;;;;;;;;;;;19.27;57.05;100732.03;4890447;29;6836;-76
2023/05/14 07:16:19;;;;;;;;;;;;;;;19.39;56.46;100730.47;4908357;28;7992;-77
2023/05/14 07:18:44;;;;;;;;;;;;;;;19.46;56.63;100734.03;4874509;29;7201;-77
2023/05/14 07:21:11;;;;;;;;;;;;;;;19.53;56.72;100734.19;4894552;29;6863;-77
2023/05/14 07:23:37;;;;;;;;;;;;;;;19.63;56.49;100740.41;4891213;29;6809;-77
2023/05/14 07:26:07;;;;;;;;;;;;;;;19.76;56.87;100738.88;4894394;29;8394;-77
2023/05/14 07:28:33;;;;;;;;;;;;;;;19.90;56.25;100735.63;4899450;29;6809;-77
2023/05/14 07:30:59;;;;;;;;;;;;;;;20.02;55.60;100734.94;4905005;29;7235;-77
2023/05/14 07:33:26;;;;;;;;;;;;;;;20.07;55.57;100736.75;4908218;29;7054;-77
2023/05/14 07:35:53;;;;;;;;;;;;;;;20.11;55.49;100730.75;4873717;29;6962;-77
2023/05/14 07:38:19;;;;;;;;;;;;;;;20.17;55.34;100735.16;4895758;29;7005;-77
2023/05/14 07:40:45;;;;;;;;;;;;;;;20.25;55.28;100733.53;4883871;29;7237;-77
2023/05/14 07:43:10;;;;;;;;;;;;;;;20.31;55.09;100724.94;4891401;29;7405;-77
2023/05/14 07:45:38;;;;;;;;;;;;;;;20.35;54.44;100734.53;4882997;29;7129;-77
2023/05/14 07:48:04;;;;;;;;;;;;;;;20.37;54.65;100732.81;4892707;29;8207;-76
2023/05/14 07:50:30;;;;;;;;;;;;;;;20.40;54.83;100740.69;4903501;29;8495;-76
2023/05/14 07:52:55;;;;;;;;;;;;;;;20.49;54.61;100736.44;4902342;29;6856;-76
2023/05/14 07:55:21;;;;;;;;;;;;;;;20.59;54.60;100735.69;4895986;29;7217;-75
2023/05/14 07:57:47;;;;;;;;;;;;;;;20.68;54.38;100735.81;4886698;29;6977;-75
2023/05/14 08:00:13;;;;;;;;;;;;;;;20.73;53.91;100738.47;4874616;28;6972;-77
2023/05/14 08:02:38;;;;;;;;;;;;;;;20.84;53.86;100740.34;4888786;29;7094;-76
2023/05/14 08:05:05;;;;;;;;;;;;;;;20.92;53.40;100739.56;4890235;29;7405;-76
2023/05/14 08:07:32;;;;;;;;;;;;;;;20.99;53.70;100739.63;4876472;29;6994;-76
2023/05/14 08:09:58;;;;;;;;;;;;;;;21.09;53.67;100736.25;4911586;29;6878;-76
2023/05/14 08:12:24;;;;;;;;;;;;;;;21.18;53.65;100732.84;4904912;29;6792;-76
2023/05/14 08:14:50;;;;;;;;;;;;;;;21.29;53.43;100736.44;4892459;29;6805;-75
2023/05/14 08:17:16;;;;;;;;;;;;;;;21.37;52.89;100728.69;4901216;29;8240;-77
2023/05/14 08:19:42;;;;;;;;;;;;;;;21.41;52.88;100733.06;4895022;29;8860;-77
2023/05/14 08:22:08;;;;;;;;;;;;;;;21.44;52.59;100733.13;4906477;29;6787;-78
2023/05/14 08:24:33;;;;;;;;;;;;;;;21.53;53.08;100727.09;4906583;29;8229;-78
2023/05/14 08:26:59;;;;;;;;;;;;;;;21.69;53.11;100733.31;4896283;29;6760;-77
2023/05/14 08:29:25;;;;;;;;;;;;;;;21.91;52.66;100733.47;4893952;29;6792;-78
2023/05/14 08:31:50;;;;;;;;;;;;;;;22.17;52.38;100727.53;4874463;29;6946;-77
2023/05/14 08:34:16;;;;;;;;;;;;;;;;;;4896598;29;6781;-77
2023/05/14 08:36:42;;;;;;;;;;;;;;;22.83;51.92;100734.78;4891174;29;8572;-77
2023/05/14 08:39:08;;;;;;;;;;;;;;;23.26;50.69;100733.09;4889759;29;6773;-77
2023/05/14 08:41:35;;;;;;;;;;;;;;;23.71;50.04;100726.16;4888051;29;7170;-77
2023/05/14 08:44:18;;;;;;;;;;;;;;;24.21;49.33;100727.81;4885345;29;6812;-77
2023/05/14 08:46:45;;;;;;;;;;;;;;;24.75;48.61;100730.19;4897575;28;7590;-78
2023/05/14 08:49:31;;;;;;;;;;;;;;;25.16;47.56;100719.47;4889750;29;6870;-77
2023/05/14 08:51:58;;;;;;;;;;;;;;;25.44;46.74;100714.00;4887742;29;7011;-77
2023/05/14 08:54:25;;;;;;;;;;;;;;;25.71;46.11;100718.13;4896168;29;6793;-77
2023/05/14 08:56:52;;;;;;;;;;;;;;;26.02;45.32;100716.94;4902110;29;7245;-77
2023/05/14 08:59:18;;;;;;;;;;;;;;;26.20;44.79;100713.25;4889976;29;6868;-77
2023/05/14 09:01:51;;;;;;;;;;;;;;;26.34;44.26;100713.09;4877136;29;8804;-77
2023/05/14 09:04:23;;;;;;;;;;;;;;;26.45;43.94;100712.97;4880979;29;6979;-77
2023/05/14 09:06:52;;;;;;;;;;;;;;;26.61;44.00;100708.34;4887160;29;7227;-78
2023/05/14 09:09:21;;;;;;;;;;;;;;;26.93;43.40;100716.72;4890346;29;7072;-78
2023/05/14 09:11:48;;;;;;;;;;;;;;;27.28;42.91;100713.50;4897593;29;6796;-77
2023/05/14 09:14:14;;;;;;;;;;;;;;;27.61;42.38;100704.19;4907851;29;6801;-77
2023/05/14 09:16:44;;;;;;;;;;;;;;;27.85;41.98;100697.59;4897272;29;6909;-77
2023/05/14 09:19:12;;;;;;;;;;;;;;;28.13;41.24;100704.94;4898004;29;6800;-77
2023/05/14 09:21:39;;;;;;;;;;;;;;;28.42;41.33;100693.84;4888059;29;7527;-75
2023/05/14 09:24:06;;;;;;;;;;;;;;;28.69;40.33;100696.75;4910556;29;6841;-75
2023/05/14 09:26:34;;;;;;;;;;;;;;;29.08;40.44;100700.28;4897718;29;7240;-75
2023/05/14 09:29:01;;;;;;;;;;;;;;;29.39;39.81;100695.06;4896729;29;6793;-75
2023/05/14 09:31:32;;;;;;;;;;;;;;;29.72;38.77;100693.41;4875838;29;6975;-75
2023/05/14 09:33:59;;;;;;;;;;;;;;;29.93;38.11;100690.16;4874417;29;7055;-76
2023/05/14 09:36:26;;;;;;;;;;;;;;;30.15;38.08;100691.34;4900816;29;7441;-75
2023/05/14 09:38:55;;;;;;;;;;;;;;;30.32;37.98;100688.19;4895812;29;6781;-75
2023/05/14 09:41:21;;;;;;;;;;;;;;;30.45;37.04;100686.03;4878567;29;7293;-75
2023/05/14 09:43:49;;;;;;;;;;;;;;;30.57;37.28;100685.66;4908431;29;6990;-75
2023/05/14 09:46:15;;;;;;;;;;;;;;;30.70;36.51;100683.53;4904265;29;6784;-74
2023/05/14 09:48:41;;;;;;;;;;;;;;;30.88;36.32;100686.50;4883648;29;6808;-75
2023/05/14 09:51:10;;;;;;;;;;;;;;;31.07;36.41;100675.31;4875394;29;6967;-75
2023/05/14 09:53:36;;;;;;;;;;;;;;;31.31;35.76;100679.75;4882142;29;7063;-75
2023/05/14 09:56:02;;;;;;;;;;;;;;;31.42;35.60;100675.88;4898005;29;7029;-74
2023/05/14 09:58:28;;;;;;;;;;;;;;;31.58;35.34;100682.38;4889899;29;7015;-75
2023/05/14 10:00:57;;;;;;;;;;;;;;;31.70;35.07;100674.88;4901681;29;6965;-75
2023/05/14 10:03:26;;;;;;;;;;;;;;;31.86;34.84;100680.53;4887916;29;6877;-75
2023/05/14 10:05:59;;;;;;;;;;;;;;;31.92;34.38;100674.13;4892928;29;6808;-75
2023/05/14 10:08:34;;;;;;;;;;;;;;;31.99;34.09;100671.22;4893354;29;7446;-75
2023/05/14 10:11:09;;;;;;;;;;;;;;;32.00;33.73;100666.75;4876201;29;7347;-74
2023/05/14 10:13:45;;;;;;;;;;;;;;;31.59;33.88;100673.50;4898575;29;6938;-74
2023/05/14 10:16:24;;;;;;;;;;;;;;;31.24;33.91;100674.75;4897067;29;6956;-75
2023/05/14 10:18:55;;;;;;;;;;;;;;;31.38;34.23;100667.19;4894854;29;6876;-74
2023/05/14 10:21:22;;;;;;;;;;;;;;;31.81;34.00;100667.44;4888411;29;6813;-74
2023/05/14 10:23:51;;;;;;;;;;;;;;;32.39;33.65;100662.66;4893784;29;7095;-74
2023/05/14 10:26:17;;;;;;;;;;;;;;;32.98;32.70;100662.97;4896053;29;6997;-75
2023/05/14 10:28:43;;;;;;;;;;;;;;;33.38;32.33;100650.63;4907624;29;6796;-75
2023/05/14 10:31:09;;;;;;;;;;;;;;;33.48;31.13;100655.56;4910006;29;6840;-75
2023/05/14 10:33:49;;;;;;;;;;;;;;;33.37;30.88;100662.19;4905080;29;7209;-75
2023/05/14 10:36:17;;;;;;;;;;;;;;;33.19;30.48;100657.66;4894307;29;6789;-75
2023/05/14 10:38:43;;;;;;;;;;;;;;;33.25;29.74;100652.94;4895676;29;6784;-74
2023/05/14 10:41:16;;;;;;;;;;;;;;;33.45;30.09;100648.56;4882560;29;8450;-74
2023/05/14 10:43:43;;;;;;;;;;;;;;;33.69;29.59;100647.56;4909449;29;7018;-74
2023/05/14 10:46:11;;;;;;;;;;;;;;;34.09;29.05;100647.53;4878571;29;7326;-75
2023/05/14 10:48:41;;;;;;;;;;;;;;;34.43;28.69;100641.47;4892035;29;7075;-75
2023/05/14 10:51:11;;;;;;;;;;;;;;;34.91;28.06;100646.25;4898317;29;6982;-74
2023/05/14 10:53:40;;;;;;;;;;;;;;;35.34;27.74;100635.19;4891260;29;6792;-74
2023/05/14 10:56:09;;;;;;;;;;;;;;;35.67;27.20;100629.03;4897182;29;10101;-75
2023/05/14 10:58:41;;;;;;;;;;;;;;;35.64;27.06;100628.31;4893780;29;7189;-75
2023/05/14 11:01:10;;;;;;;;;;;;;;;35.52;26.39;100628.03;4903604;28;6824;-75
2023/05/14 11:03:45;;;;;;;;;;;;;;;35.38;24.50;100636.75;4907486;28;7246;-75
2023/05/14 11:06:13;;;;;;;;;;;;;;;34.92;24.37;100632.00;4898565;29;7191;-75
2023/05/14 11:08:40;;;;;;;;;;;;;;;34.20;24.21;100619.50;4896336;29;7068;-74
2023/05/14 11:11:08;;;;;;;;;;;;;;;33.76;24.46;100618.00;4891024;29;6804;-74
2023/05/14 11:13:34;;;;;;;;;;;;;;;33.42;24.63;100616.81;4892612;29;6816;-74
2023/05/14 11:16:01;;;;;;;;;;;;;;;33.52;25.78;100612.00;4898993;29;6983;-74
2023/05/14 11:18:28;;;;;;;;;;;;;;;33.90;25.65;100624.44;4908292;29;6800;-74
2023/05/14 11:20:59;;;;;;;;;;;;;;;34.21;25.84;100621.22;4907729;29;6820;-74
2023/05/14 11:23:25;;;;;;;;;;;;;;;34.54;25.11;100616.16;4899623;29;6924;-74
2023/05/14 11:25:52;;;;;;;;;;;;;;;34.65;25.46;100613.81;4899598;29;7050;-74
2023/05/14 11:28:23;;;;;;;;;;;;;;;34.73;25.61;100601.00;4898804;29;6836;-74
2023/05/14 11:30:53;;;;;;;;;;;;;;;34.95;25.46;100605.22;4894228;29;6808;-74
2023/05/14 11:33:19;;;;;;;;;;;;;;;35.26;25.31;100606.31;4877547;29;6861;-74
2023/05/14 11:35:48;;;;;;;;;;;;;;;35.31;24.76;100593.59;4873576;29;6975;-74
2023/05/14 11:38:23;;;;;;;;;;;;;;;34.97;24.65;100590.03;4892730;29;7024;-74
2023/05/14 11:40:57;;;;;;;;;;;;;;;34.84;25.20;100591.59;4886964;29;6862;-75
2023/05/14 11:43:27;;;;;;;;;;;;;;;35.02;25.38;100585.31;4878761;29;8475;-74
2023/05/14 11:45:54;;;;;;;;;;;;;;;35.35;25.38;100580.09;4874822;29;6869;-74
2023/05/14 11:48:21;;;;;;;;;;;;;;;35.68;25.38;100588.09;4878035;29;6840;-74
2023/05/14 11:50:50;;;;;;;;;;;;;;;36.04;24.41;100586.16;4887590;29;7178;-75
2023/05/14 11:53:25;;;;;;;;;;;;;;;36.12;24.19;100581.28;4884718;29;7017;-74
2023/05/14 11:55:53;;;;;;;;;;;;;;;35.66;23.66;100584.66;4884426;29;6812;-75
2023/05/14 11:58:19;;;;;;;;;;;;;;;35.16;23.44;100578.47;4893126;29;6816;-74
2023/05/14 12:00:46;;;;;;;;;;;;;;;34.83;23.20;100574.78;4887577;29;7134;-77
2023/05/14 12:03:12;;;;;;;;;;;;;;;34.90;23.96;100572.66;4903710;29;7895;-78
2023/05/14 12:05:39;;;;;;;;;;;;;;;35.20;23.70;100566.69;4901539;28;7053;-77
2023/05/14 12:08:24;;;;;;;;;;;;;;;35.65;23.06;100558.97;4893106;29;7147;-77
2023/05/14 12:10:52;;;;;;;;;;;;;;;36.03;22.69;100563.09;4901461;29;6941;-76
2023/05/14 12:13:19;;;;;;;;;;;;;;;36.11;22.64;100562.69;4913354;29;6789;-77
2023/05/14 12:15:55;;;;;;;;;;;;;;;35.61;22.72;100569.88;4896321;29;6893;-75
2023/05/14 12:18:23;;;;;;;;;;;;;;;34.65;22.97;100560.59;4900436;29;6856;-79
2023/05/14 12:20:50;;;;;;;;;;;;;;;33.65;23.44;100556.50;4898369;29;6816;-77
2023/05/14 12:23:23;;;;;;;;;;;;;;;32.90;24.55;100554.47;4900430;29;6836;-77
2023/05/14 12:25:52;;;;;;;;;;;;;;;32.43;24.75;100547.56;4899359;29;7216;-77
2023/05/14 12:28:18;;;;;;;;;;;;;;;32.39;25.24;100546.84;4903554;29;6796;-74
2023/05/14 12:30:46;;;;;;;;;;;;;;;32.64;25.26;100550.25;4880967;29;7308;-76
2023/05/14 12:33:13;;;;;;;;;;;;;;;32.77;24.74;100538.19;4905414;29;7047;-74
2023/05/14 12:35:39;;;;;;;;;;;;;;;32.95;24.86;100538.38;4898586;29;7005;-75
2023/05/14 12:38:05;;;;;;;;;;;;;;;32.90;24.43;100533.22;4901481;29;8216;-77
2023/05/14 12:40:31;;;;;;;;;;;;;;;32.61;24.22;100526.50;4897375;29;7178;-77
2023/05/14 12:42:56;;;;;;;;;;;;;;;32.20;24.66;100525.50;4897119;29;7834;-76
2023/05/14 12:45:22;;;;;;;;;;;;;;;32.08;25.45;100537.47;4914098;29;7023;-76
2023/05/14 12:47:48;;;;;;;;;;;;;;;31.98;25.77;100531.69;4896030;29;6991;-76